Time;durP1;ratioP1;P1;durP2;ratioP2;P2;SDS_P1;SDS_P2;PMS_P1;PMS_P2;Temp;Humidity;BMP_temperature;BMP_pressure;BME280_temperature;BME280_humidity;BME280_pressure;Samples;Min_cycle;Max_cycle;Signal;HPM_P1;HPM_P2
2023/07/03 00:02:05;;;;;;;0.00;0.00;;;;;;;24.07;47.76;100870.47;5070890;28;20082;-61
2023/07/03 00:04:35;;;;;;;0.10;0.10;;;;;;;23.57;48.99;100865.41;5073333;28;20051;-61
2023/07/03 00:07:07;;;;;;;0.08;0.08;;;;;;;24.75;46.21;100860.94;5079062;28;20042;-61
2023/07/03 00:09:32;;;;;;;0.00;0.00;;;;;;;23.83;47.69;100858.97;5075132;28;20020;-60
2023/07/03 00:11:58;;;;;;;0.08;0.08;;;;;;;23.61;49.20;100858.16;5067273;28;20029;-61
2023/07/03 00:14:23;;;;;;;0.00;0.00;;;;;;;24.04;48.10;100853.81;5081549;28;20085;-61
2023/07/03 00:16:49;;;;;;;0.10;0.10;;;;;;;24.03;47.65;100855.75;5069947;28;20044;-61
2023/07/03 00:19:15;;;;;;;0.10;0.10;;;;;;;24.21;47.38;100852.00;5079533;28;20044;-62
2023/07/03 00:21:43;;;;;;;0.10;0.10;;;;;;;23.56;49.54;100856.38;5071214;28;20070;-63
2023/07/03 00:24:13;;;;;;;0.10;0.10;;;;;;;24.49;47.25;100860.81;5083260;28;20423;-61
2023/07/03 00:26:40;;;;;;;0.05;0.05;;;;;;;23.92;49.02;100859.06;5077580;28;20492;-61
2023/07/03 00:29:06;;;;;;;0.00;0.00;;;;;;;23.89;48.71;100857.72;5084831;28;20028;-59
2023/07/03 00:31:31;;;;;;;0.00;0.00;;;;;;;24.10;48.56;100850.63;5071129;28;20044;-61
2023/07/03 00:33:58;;;;;;;0.10;0.10;;;;;;;23.38;50.00;100858.16;5084540;28;20035;-61
2023/07/03 00:36:24;;;;;;;0.10;0.10;;;;;;;23.10;51.40;100862.03;5075004;28;20015;-61
2023/07/03 00:38:50;;;;;;;0.10;0.10;;;;;;;23.64;50.31;100855.63;5076898;28;20054;-62
2023/07/03 00:41:16;;;;;;;0.10;0.10;;;;;;;23.72;49.72;100854.88;5082768;28;20288;-62
2023/07/03 00:43:42;;;;;;;0.00;0.00;;;;;;;23.43;50.93;100858.03;5070112;28;20062;-61
2023/07/03 00:46:11;;;;;;;0.10;0.10;;;;;;;23.28;51.45;100854.78;5067340;28;20032;-62
2023/07/03 00:48:39;;;;;;;0.10;0.10;;;;;;;23.68;50.25;100853.88;5074028;28;20027;-63
2023/07/03 00:51:05;;;;;;;0.10;0.10;;;;;;;23.76;49.88;100852.31;5075226;28;20104;-61
2023/07/03 00:53:30;;;;;;;0.10;0.10;;;;;;;23.86;49.79;100852.84;5084288;28;20130;-60
2023/07/03 00:55:56;;;;;;;0.10;0.10;;;;;;;23.97;49.47;100854.22;5069357;28;20400;-60
2023/07/03 00:58:21;;;;;;;0.10;0.10;;;;;;;24.34;48.50;100851.06;5069900;28;20024;-60
2023/07/03 01:00:59;;;;;;;0.10;0.10;;;;;;;23.41;51.80;100857.53;5075080;28;20027;-60
2023/07/03 01:03:35;;;;;;;0.00;0.00;;;;;;;23.27;52.47;100856.72;5075527;28;20040;-62
2023/07/03 01:06:04;;;;;;;0.00;0.00;;;;;;;23.43;52.02;100849.78;5069474;28;20082;-64
2023/07/03 01:08:31;;;;;;;0.10;0.10;;;;;;;23.46;51.95;100849.19;5078552;28;20143;-61
2023/07/03 01:10:57;;;;;;;0.10;0.10;;;;;;;23.98;50.47;100846.81;5073373;28;20024;-60
2023/07/03 01:13:26;;;;;;;0.10;0.10;;;;;;;24.03;50.44;100841.22;5082569;28;20484;-62
2023/07/03 01:15:52;;;;;;;0.00;0.00;;;;;;;23.60;50.36;100843.66;5068767;28;20059;-60
2023/07/03 01:18:19;;;;;;;0.10;0.10;;;;;;;24.18;49.60;100838.06;5067071;28;20020;-61
2023/07/03 01:21:03;;;;;;;0.10;0.10;;;;;;;24.82;48.03;100837.38;5073706;28;20043;-62
2023/07/03 01:23:35;;;;;;;0.00;0.00;;;;;;;23.57;51.20;100835.25;5087557;28;20543;-63
2023/07/03 01:26:03;;;;;;;0.10;0.10;;;;;;;23.91;50.36;100830.78;5068207;28;20055;-63
2023/07/03 01:28:29;;;;;;;0.03;0.03;;;;;;;23.80;50.43;100823.13;5084129;28;20055;-63
2023/07/03 01:30:56;;;;;;;0.10;0.10;;;;;;;23.81;50.44;100819.25;5075597;28;20024;-62
2023/07/03 01:33:30;;;;;;;0.10;0.10;;;;;;;23.79;50.31;100818.75;5051383;28;20050;-61
2023/07/03 01:35:57;;;;;;;0.10;0.10;;;;;;;23.87;50.27;100818.81;5068761;28;20438;-61
2023/07/03 01:38:24;;;;;;;0.10;0.10;;;;;;;24.32;49.24;100808.56;5081665;28;20033;-60
2023/07/03 01:40:53;;;;;;;0.10;0.10;;;;;;;23.46;51.09;100819.03;5078209;28;20044;-63
2023/07/03 01:43:20;;;;;;;0.10;0.10;;;;;;;23.94;49.85;100821.91;5057313;28;20028;-62
2023/07/03 01:45:47;;;;;;;0.08;0.08;;;;;;;23.05;52.18;100814.75;5086026;28;20023;-64
2023/07/03 01:48:14;;;;;;;0.10;0.10;;;;;;;23.20;52.22;100812.47;5072787;28;20048;-60
2023/07/03 01:50:41;;;;;;;0.10;0.10;;;;;;;23.74;50.45;100807.91;5081189;28;20545;-60
2023/07/03 01:53:23;;;;;;;0.10;0.10;;;;;;;23.51;50.90;100813.41;5073526;28;20373;-62
2023/07/03 01:55:54;;;;;;;0.10;0.10;;;;;;;23.50;51.80;100822.75;5085444;28;20111;-60
2023/07/03 01:58:22;;;;;;;0.10;0.10;;;;;;;23.15;53.60;100817.25;5073898;28;20036;-62
2023/07/03 02:00:52;;;;;;;0.10;0.10;;;;;;;22.67;56.42;100825.16;5080307;28;20466;-60
2023/07/03 02:03:40;;;;;;;0.10;0.10;;;;;;;22.87;58.27;100826.66;5082429;28;20050;-62
2023/07/03 02:06:28;;;;;;;0.10;0.10;;;;;;;21.65;61.46;100849.16;5072292;28;20056;-68
2023/07/03 02:08:55;;;;;;;0.20;0.20;;;;;;;21.48;63.10;100849.69;5069333;28;20033;-67
2023/07/03 02:11:22;;;;;;;0.10;0.10;;;;;;;21.27;62.24;100831.97;5069165;28;20404;-68
2023/07/03 02:13:48;;;;;;;0.10;0.10;;;;;;;21.14;62.35;100831.91;5085960;28;20369;-67
2023/07/03 02:16:15;;;;;;;0.20;0.20;;;;;;;21.22;62.09;100829.34;5084444;28;20162;-67
2023/07/03 02:18:41;;;;;;;0.10;0.10;;;;;;;21.68;59.79;100827.50;5077331;28;20484;-67
2023/07/03 02:21:07;;;;;;;0.10;0.10;;;;;;;21.99;59.04;100827.84;5076784;28;20043;-69
2023/07/03 02:23:32;;;;;;;0.13;0.13;;;;;;;21.52;60.42;100819.84;5083966;28;20036;-68
2023/07/03 02:25:57;;;;;;;0.20;0.20;;;;;;;22.58;56.92;100825.06;5071571;28;20051;-69
2023/07/03 02:28:23;;;;;;;0.10;0.10;;;;;;;21.90;59.30;100823.31;5067792;28;20036;-70
2023/07/03 02:30:48;;;;;;;0.10;0.10;;;;;;;22.12;59.03;100831.69;5079639;28;20474;-66
2023/07/03 02:33:14;;;;;;;0.10;0.10;;;;;;;22.18;58.53;100831.31;5055452;28;20029;-69
2023/07/03 02:35:41;;;;;;;0.20;0.20;;;;;;;21.92;59.70;100832.03;5081541;28;20043;-67
2023/07/03 02:38:08;;;;;;;0.20;0.20;;;;;;;21.96;59.89;100838.53;5088853;28;20496;-69
2023/07/03 02:40:34;;;;;;;0.10;0.10;;;;;;;21.89;59.88;100835.41;5079206;28;20454;-68
2023/07/03 02:42:59;;;;;;;0.20;0.20;;;;;;;21.65;60.36;100839.03;5082003;28;20036;-68
2023/07/03 02:45:24;;;;;;;0.10;0.10;;;;;;;21.90;59.67;100828.81;5086815;28;20135;-68
2023/07/03 02:47:50;;;;;;;0.17;0.17;;;;;;;22.15;59.41;100831.09;5056507;28;20528;-68
2023/07/03 02:50:15;;;;;;;0.10;0.10;;;;;;;21.42;61.56;100831.78;5087274;28;20036;-67
2023/07/03 02:52:41;;;;;;;0.20;0.20;;;;;;;21.38;62.13;100836.22;5076758;28;20032;-68
2023/07/03 02:55:07;;;;;;;0.13;0.13;;;;;;;21.59;61.40;100834.78;5083657;28;20039;-68
2023/07/03 02:57:32;;;;;;;0.20;0.20;;;;;;;21.94;60.75;100838.03;5077664;28;20150;-68
2023/07/03 02:59:57;;;;;;;0.10;0.10;;;;;;;21.52;62.06;100828.06;5055938;28;20036;-67
2023/07/03 03:02:23;;;;;;;0.10;0.10;;;;;;;21.82;61.02;100835.78;5092392;28;20040;-69
2023/07/03 03:04:48;;;;;;;0.10;0.10;;;;;;;22.02;60.77;100829.94;5056107;28;20417;-68
2023/07/03 03:07:14;;;;;;;0.10;0.10;;;;;;;21.56;61.94;100826.34;5053251;28;20107;-68
2023/07/03 03:09:40;;;;;;;0.10;0.10;;;;;;;21.91;60.27;100823.06;5087727;28;20028;-69
2023/07/03 03:12:06;;;;;;;0.10;0.10;;;;;;;21.61;61.77;100823.53;5086235;28;20423;-67
2023/07/03 03:14:32;;;;;;;0.17;0.17;;;;;;;21.69;61.15;100831.06;5081593;28;20033;-68
2023/07/03 03:16:58;;;;;;;0.10;0.10;;;;;;;21.70;61.15;100822.53;5081738;28;20614;-67
2023/07/03 03:19:23;;;;;;;0.20;0.20;;;;;;;21.86;60.52;100816.84;5074417;28;20036;-70
2023/07/03 03:21:49;;;;;;;0.15;0.15;;;;;;;21.44;61.71;100810.41;5086687;28;20043;-67
2023/07/03 03:24:16;;;;;;;0.10;0.10;;;;;;;21.21;63.22;100811.28;5072430;28;20391;-68
2023/07/03 03:26:41;;;;;;;0.13;0.13;;;;;;;21.65;60.33;100811.69;5063936;28;20106;-67
2023/07/03 03:29:07;;;;;;;0.20;0.20;;;;;;;22.49;57.94;100813.16;5068326;28;20032;-68
2023/07/03 03:31:32;;;;;;;0.10;0.10;;;;;;;22.19;59.21;100810.22;5082989;28;20040;-71
2023/07/03 03:33:57;;;;;;;0.10;0.10;;;;;;;22.27;59.99;100820.47;5071330;28;20086;-68
2023/07/03 03:36:23;;;;;;;0.10;0.10;;;;;;;21.86;61.52;100820.38;5076804;28;20052;-71
2023/07/03 03:39:00;;;;;;;0.10;0.10;;;;;;;22.01;61.05;100824.78;5078721;28;20049;-68
2023/07/03 03:41:26;;;;;;;0.10;0.10;;;;;;;21.88;61.27;100823.63;5056497;28;20041;-66
2023/07/03 03:43:51;;;;;;;0.10;0.10;;;;;;;22.13;60.62;100827.84;5084851;28;20037;-66
2023/07/03 03:46:16;;;;;;;0.10;0.10;;;;;;;21.46;62.87;100824.56;5082499;28;20037;-67
2023/07/03 03:48:42;;;;;;;0.10;0.10;;;;;;;22.02;61.07;100821.75;5074313;28;20056;-68
2023/07/03 03:51:09;;;;;;;0.10;0.10;;;;;;;21.83;62.05;100823.72;5072471;28;20094;-67
2023/07/03 03:53:34;;;;;;;0.10;0.10;;;;;;;22.01;61.38;100827.53;5075978;28;20043;-66
2023/07/03 03:55:59;;;;;;;0.10;0.10;;;;;;;22.11;60.88;100828.13;5084765;28;20394;-67
2023/07/03 03:58:25;;;;;;;0.00;0.00;;;;;;;22.92;59.10;100821.88;5075303;28;20029;-67
2023/07/03 04:00:53;;;;;;;0.10;0.10;;;;;;;22.16;61.13;100827.22;5074073;28;20032;-66
2023/07/03 04:03:19;;;;;;;0.10;0.10;;;;;;;21.94;61.04;100830.63;5051316;28;20431;-68
2023/07/03 04:05:45;;;;;;;0.10;0.10;;;;;;;22.65;58.92;100836.44;5055980;28;20061;-67
2023/07/03 04:08:11;;;;;;;0.15;0.15;;;;;;;22.03;60.56;100834.34;5066291;28;20519;-68
2023/07/03 04:10:36;;;;;;;0.10;0.10;;;;;;;21.89;61.35;100829.94;5059461;28;20063;-66
2023/07/03 04:13:01;;;;;;;0.10;0.10;;;;;;;22.35;59.63;100830.69;5073954;28;20024;-67
2023/07/03 04:15:33;;;;;;;0.10;0.10;;;;;;;22.09;60.57;100835.88;5063997;28;20017;-67
2023/07/03 04:17:59;;;;;;;0.20;0.20;;;;;;;23.36;56.18;100832.16;5067742;28;20064;-67
2023/07/03 04:20:25;;;;;;;0.10;0.10;;;;;;;22.38;59.03;100841.88;5068364;28;20399;-66
2023/07/03 04:22:51;;;;;;;0.20;0.20;;;;;;;21.81;61.15;100845.94;5069868;28;20036;-67
2023/07/03 04:25:16;;;;;;;0.10;0.10;;;;;;;22.10;60.33;100839.38;5078652;28;20032;-69
2023/07/03 04:27:42;;;;;;;0.10;0.10;;;;;;;22.19;59.76;100851.28;5068813;28;20056;-67
2023/07/03 04:30:08;;;;;;;0.10;0.10;;;;;;;22.65;58.39;100846.56;5083044;28;20040;-66
2023/07/03 04:32:34;;;;;;;0.10;0.10;;;;;;;21.84;61.16;100850.78;5076291;28;20032;-67
2023/07/03 04:35:00;;;;;;;0.10;0.10;;;;;;;22.85;58.02;100854.38;5060996;28;20040;-68
2023/07/03 04:37:26;;;;;;;0.20;0.20;;;;;;;23.54;55.25;100847.63;5068195;28;20039;-67
2023/07/03 04:39:56;;;;;;;0.10;0.10;;;;;;;22.51;58.58;100862.97;5070195;28;20028;-68
2023/07/03 04:42:22;;;;;;;0.17;0.17;;;;;;;22.63;57.09;100854.28;5084897;28;20008;-69
2023/07/03 04:44:50;;;;;;;0.10;0.10;;;;;;;22.82;55.90;100848.69;5078581;28;20086;-67
2023/07/03 04:47:16;;;;;;;0.10;0.10;;;;;;;22.18;58.06;100857.84;5076122;28;20032;-66
2023/07/03 04:49:46;;;;;;;0.10;0.10;;;;;;;22.00;59.05;100864.19;5085774;28;20044;-67
2023/07/03 04:52:16;;;;;;;0.10;0.10;;;;;;;22.71;56.30;100859.06;5066309;28;20036;-67
2023/07/03 04:54:41;;;;;;;0.10;0.10;;;;;;;22.64;56.04;100862.19;5078095;28;20024;-67
2023/07/03 04:57:07;;;;;;;0.10;0.10;;;;;;;22.91;55.04;100858.63;5069523;28;20371;-67
2023/07/03 04:59:32;;;;;;;0.17;0.17;;;;;;;23.09;53.68;100859.63;5064391;28;20032;-68
2023/07/03 05:01:58;;;;;;;0.10;0.10;;;;;;;22.62;54.63;100863.63;5085924;28;20036;-66
2023/07/03 05:04:23;;;;;;;0.10;0.10;;;;;;;22.21;55.78;100863.53;5051132;28;20039;-68
2023/07/03 05:06:50;;;;;;;0.10;0.10;;;;;;;22.74;53.82;100860.38;5078009;28;20233;-66
2023/07/03 05:09:16;;;;;;;0.10;0.10;;;;;;;22.76;52.91;100869.91;5076805;28;20031;-70
2023/07/03 05:11:42;;;;;;;0.10;0.10;;;;;;;22.08;53.81;100869.81;5072238;28;20057;-66
2023/07/03 05:14:07;;;;;;;0.10;0.10;;;;;;;22.59;53.02;100864.22;5073627;28;20036;-67
2023/07/03 05:16:32;;;;;;;0.10;0.10;;;;;;;22.04;53.77;100868.78;5067825;28;20039;-67
2023/07/03 05:18:58;;;;;;;0.00;0.00;;;;;;;22.34;51.88;100873.72;5068578;28;20044;-69
2023/07/03 05:21:23;;;;;;;0.10;0.10;;;;;;;22.30;51.44;100866.41;5083070;28;20020;-67
2023/07/03 05:23:49;;;;;;;0.20;0.20;;;;;;;22.39;50.60;100881.81;5069295;28;20081;-69
2023/07/03 05:26:14;;;;;;;0.10;0.10;;;;;;;22.18;51.19;100877.84;5067609;28;20044;-67
2023/07/03 05:28:40;;;;;;;0.10;0.10;;;;;;;22.32;51.77;100878.69;5068599;28;20039;-68
2023/07/03 05:31:05;;;;;;;0.17;0.17;;;;;;;22.60;50.97;100876.81;5068796;28;20488;-67
2023/07/03 05:33:31;;;;;;;0.10;0.10;;;;;;;22.75;50.30;100876.50;5068811;28;20025;-70
2023/07/03 05:36:00;;;;;;;0.10;0.10;;;;;;;22.67;50.84;100879.94;5068280;28;20334;-67
2023/07/03 05:38:25;;;;;;;0.10;0.10;;;;;;;22.32;51.96;100875.94;5065829;28;20123;-67
2023/07/03 05:40:51;;;;;;;0.10;0.10;;;;;;;22.88;50.46;100894.06;5073930;28;20583;-69
2023/07/03 05:43:17;;;;;;;0.20;0.20;;;;;;;22.88;50.38;100889.38;5077557;28;20135;-66
2023/07/03 05:45:42;;;;;;;0.10;0.10;;;;;;;22.24;50.72;100892.25;5051438;28;20076;-68
2023/07/03 05:48:08;;;;;;;0.10;0.10;;;;;;;22.02;51.68;100883.88;5071819;28;20392;-69
2023/07/03 05:50:33;;;;;;;0.10;0.10;;;;;;;22.10;51.14;100892.22;5076513;28;20044;-66
2023/07/03 05:52:59;;;;;;;0.08;0.08;;;;;;;22.64;49.81;100889.59;5077080;28;20411;-66
2023/07/03 05:55:24;;;;;;;0.10;0.10;;;;;;;22.99;49.09;100904.50;5077251;28;20025;-67
2023/07/03 05:57:49;;;;;;;0.10;0.10;;;;;;;21.92;51.91;100897.72;5078655;28;20028;-69
2023/07/03 06:00:15;;;;;;;0.10;0.10;;;;;;;22.55;50.30;100896.03;5074181;28;20029;-65
2023/07/03 06:02:45;;;;;;;0.10;0.10;;;;;;;23.24;48.65;100892.19;5059272;28;20108;-68
2023/07/03 06:05:12;;;;;;;0.10;0.10;;;;;;;23.32;48.50;100888.75;5075559;28;20037;-67
2023/07/03 06:07:38;;;;;;;0.10;0.10;;;;;;;23.36;48.42;100895.22;5066870;28;20478;-68
2023/07/03 06:10:06;;;;;;;0.10;0.10;;;;;;;23.54;47.06;100899.75;5069851;28;20031;-67
2023/07/03 06:12:31;;;;;;;0.10;0.10;;;;;;;24.17;45.67;100897.69;5079569;28;20783;-66
2023/07/03 06:14:57;;;;;;;0.10;0.10;;;;;;;23.09;47.54;100901.56;5082774;28;20035;-66
2023/07/03 06:17:24;;;;;;;0.10;0.10;;;;;;;22.60;48.90;100899.53;5072929;28;20090;-68
2023/07/03 06:19:50;;;;;;;0.10;0.10;;;;;;;23.39;47.49;100900.09;5089256;28;20040;-67
2023/07/03 06:22:15;;;;;;;0.10;0.10;;;;;;;22.79;47.56;100890.41;5077206;28;20619;-69
2023/07/03 06:24:41;;;;;;;0.10;0.10;;;;;;;22.90;47.51;100897.31;5085347;28;20028;-67
2023/07/03 06:27:06;;;;;;;0.10;0.10;;;;;;;23.30;46.61;100891.78;5072391;28;20053;-66
2023/07/03 06:29:32;;;;;;;0.10;0.10;;;;;;;23.21;46.42;100896.34;5087766;28;20050;-70
2023/07/03 06:31:58;;;;;;;0.10;0.10;;;;;;;23.81;45.16;100893.34;5075922;28;20169;-67
2023/07/03 06:34:23;;;;;;;0.00;0.00;;;;;;;24.02;45.21;100900.78;5087081;28;20040;-67
2023/07/03 06:36:49;;;;;;;0.10;0.10;;;;;;;24.41;44.78;100911.06;5081016;28;20024;-64
2023/07/03 06:39:14;;;;;;;0.00;0.00;;;;;;;23.20;47.49;100907.63;5061866;28;20041;-67
2023/07/03 06:41:39;;;;;;;0.10;0.10;;;;;;;23.82;46.12;100901.25;5088179;28;20048;-66
2023/07/03 06:44:06;;;;;;;0.10;0.10;;;;;;;24.01;46.20;100903.84;5075287;28;20043;-67
2023/07/03 06:46:33;;;;;;;0.05;0.05;;;;;;;24.06;46.05;100914.69;5085246;28;20044;-66
2023/07/03 06:48:58;;;;;;;0.03;0.03;;;;;;;22.96;47.09;100924.28;5072192;28;20028;-67
2023/07/03 06:51:25;;;;;;;0.10;0.10;;;;;;;23.74;46.15;100910.28;5072150;28;20531;-67
2023/07/03 06:53:50;;;;;;;0.10;0.10;;;;;;;23.57;45.64;100904.63;5054271;28;20051;-67
2023/07/03 06:56:17;;;;;;;0.10;0.10;;;;;;;22.97;47.48;100908.66;5087073;28;20393;-70
2023/07/03 06:58:42;;;;;;;0.10;0.10;;;;;;;23.86;44.89;100905.00;5080426;28;20036;-66
2023/07/03 07:01:10;;;;;;;0.10;0.10;;;;;;;24.42;44.33;100907.19;5080138;28;20447;-65
2023/07/03 07:03:36;;;;;;;0.10;0.10;;;;;;;24.25;44.33;100905.13;5087325;28;20061;-66
2023/07/03 07:06:11;;;;;;;0.10;0.10;;;;;;;24.38;43.89;100908.94;5075080;28;20060;-68
2023/07/03 07:08:37;;;;;;;0.00;0.00;;;;;;;24.41;43.83;100911.06;5083724;28;20036;-69
2023/07/03 07:11:08;;;;;;;0.00;0.00;;;;;;;23.73;45.28;100910.56;5071077;28;20526;-68
2023/07/03 07:13:33;;;;;;;0.10;0.10;;;;;;;24.15;44.62;100907.34;5086317;28;20476;-67
2023/07/03 07:15:58;;;;;;;0.00;0.00;;;;;;;22.55;48.05;100917.97;5072379;28;20033;-67
2023/07/03 07:18:24;;;;;;;0.00;0.00;;;;;;;23.85;44.21;100908.06;5076149;28;20012;-67
2023/07/03 07:20:49;;;;;;;0.10;0.10;;;;;;;22.95;45.75;100911.72;5079777;28;20036;-69
2023/07/03 07:23:14;;;;;;;0.00;0.00;;;;;;;22.79;45.67;100909.59;5078501;28;20059;-67
2023/07/03 07:25:40;;;;;;;0.00;0.00;;;;;;;22.86;45.46;100921.75;5052127;28;20049;-66
2023/07/03 07:28:05;;;;;;;0.00;0.00;;;;;;;23.85;44.04;100919.06;5087252;28;20025;-67
2023/07/03 07:30:31;;;;;;;0.00;0.00;;;;;;;23.68;43.97;100924.41;5057937;28;20430;-66
2023/07/03 07:32:57;;;;;;;0.10;0.10;;;;;;;23.52;44.91;100919.28;5081044;28;20028;-67
2023/07/03 07:35:22;;;;;;;0.10;0.10;;;;;;;24.27;42.86;100921.31;5076807;28;20093;-66
2023/07/03 07:37:48;;;;;;;0.00;0.00;;;;;;;23.60;42.13;100931.44;5076358;28;20040;-67
2023/07/03 07:40:13;;;;;;;0.10;0.10;;;;;;;22.98;44.29;100935.78;5074620;28;20058;-67
2023/07/03 07:42:39;;;;;;;0.00;0.00;;;;;;;23.40;42.96;100923.66;5083385;28;20020;-67
2023/07/03 07:45:05;;;;;;;0.10;0.10;;;;;;;23.39;42.58;100927.50;5070189;28;20036;-67
2023/07/03 07:47:31;;;;;;;0.10;0.10;;;;;;;23.60;42.44;100936.13;5069705;28;20037;-68
2023/07/03 07:49:58;;;;;;;0.00;0.00;;;;;;;23.86;42.06;100920.69;5070984;28;20045;-67
2023/07/03 07:52:24;;;;;;;0.00;0.00;;;;;;;24.08;41.25;100921.50;5062957;28;20032;-67
2023/07/03 07:54:57;;;;;;;0.08;0.08;;;;;;;24.57;40.41;100923.25;5073406;28;20039;-68
2023/07/03 07:57:23;;;;;;;0.00;0.00;;;;;;;23.75;41.96;100935.75;5070794;28;20048;-67
2023/07/03 07:59:48;;;;;;;0.10;0.10;;;;;;;23.42;42.87;100933.22;5088162;28;20028;-68
2023/07/03 08:02:13;;;;;;;0.05;0.05;;;;;;;23.43;42.25;100934.84;5090805;28;20036;-66
2023/07/03 08:04:39;;;;;;;0.00;0.00;;;;;;;22.92;42.56;100947.94;5090618;28;20522;-67
2023/07/03 08:07:04;;;;;;;0.10;0.10;;;;;;;23.47;41.09;100937.75;5090028;28;20025;-68
2023/07/03 08:09:30;;;;;;;0.10;0.10;;;;;;;24.00;40.13;100930.47;5090605;28;20028;-69
2023/07/03 08:11:55;;;;;;;0.00;0.00;;;;;;;22.97;42.52;100925.94;5089145;28;20032;-67
2023/07/03 08:14:21;;;;;;;0.00;0.00;;;;;;;24.09;41.01;100930.56;5088347;28;20043;-67
2023/07/03 08:16:46;;;;;;;0.00;0.00;;;;;;;23.97;41.10;100927.53;5069795;28;20025;-66
2023/07/03 08:19:11;;;;;;;0.00;0.00;;;;;;;24.64;39.85;100931.03;5069797;28;20043;-68
2023/07/03 08:21:37;;;;;;;0.00;0.00;;;;;;;24.59;39.85;100926.50;5067936;28;20032;-68
2023/07/03 08:24:02;;;;;;;0.00;0.00;;;;;;;24.64;39.97;100933.78;5051235;28;20471;-67
2023/07/03 08:26:28;;;;;;;0.00;0.00;;;;;;;25.07;38.87;100932.03;5049363;28;20061;-67
2023/07/03 08:28:54;;;;;;;0.10;0.10;;;;;;;25.10;38.56;100936.94;5040917;28;20048;-66
2023/07/03 08:31:20;;;;;;;0.00;0.00;;;;;;;24.10;39.29;100932.19;5069937;28;20271;-66
2023/07/03 08:33:45;;;;;;;0.10;0.10;;;;;;;23.55;39.54;100937.84;5062491;28;20021;-66
2023/07/03 08:36:10;;;;;;;0.00;0.00;;;;;;;24.88;37.59;100942.50;5049471;28;20040;-67
2023/07/03 08:38:36;;;;;;;0.00;0.00;;;;;;;23.48;38.60;100953.13;5049512;28;20497;-69
2023/07/03 08:41:01;;;;;;;0.03;0.03;;;;;;;23.76;36.65;100937.41;5037696;28;20029;-66
2023/07/03 08:43:49;;;;;;;0.00;0.00;;;;;;;23.83;36.94;100941.31;5069604;28;20031;-67
2023/07/03 08:46:24;;;;;;;0.00;0.00;;;;;;;24.22;36.97;100946.16;5069378;28;20035;-66
2023/07/03 08:48:53;;;;;;;0.10;0.10;;;;;;;23.97;37.68;100949.50;5069401;28;20044;-69
2023/07/03 08:51:22;;;;;;;0.00;0.00;;;;;;;23.81;38.76;100949.06;5069872;28;20024;-66
2023/07/03 08:53:54;;;;;;;0.00;0.00;;;;;;;23.78;39.20;100957.94;5069370;28;20516;-68
2023/07/03 08:56:22;;;;;;;0.00;0.00;;;;;;;23.54;39.32;100954.63;5069182;28;20059;-69
2023/07/03 08:58:52;;;;;;;0.00;0.00;;;;;;;24.60;39.14;100965.78;5051059;28;20029;-67
2023/07/03 09:01:22;;;;;;;0.00;0.00;;;;;;;23.20;43.57;100973.44;5068845;28;20078;-66
2023/07/03 09:04:14;;;;;;;0.10;0.10;;;;;;;23.81;43.14;100968.28;5051630;28;20078;-67
2023/07/03 09:06:52;;;;;;;0.10;0.10;;;;;;;24.46;41.74;100965.88;5050625;28;20063;-67
2023/07/03 09:09:28;;;;;;;0.10;0.10;;;;;;;25.74;39.30;100974.63;5068620;28;20040;-68
2023/07/03 09:12:06;;;;;;;0.10;0.10;;;;;;;24.11;41.91;100967.59;5067972;28;20032;-66
2023/07/03 09:14:40;;;;;;;0.05;0.05;;;;;;;24.24;41.37;100976.88;5075111;28;20037;-66
2023/07/03 09:17:11;;;;;;;0.10;0.10;;;;;;;24.61;40.41;100975.66;5047993;28;20136;-69
2023/07/03 09:19:40;;;;;;;0.10;0.10;;;;;;;24.89;40.54;100980.69;5049856;28;20070;-67
2023/07/03 09:22:10;;;;;;;0.05;0.05;;;;;;;25.19;39.35;100959.75;5068296;28;20614;-66
2023/07/03 09:24:39;;;;;;;0.00;0.00;;;;;;;25.09;38.51;100955.34;5068633;28;20062;-65
2023/07/03 09:27:09;;;;;;;0.10;0.10;;;;;;;24.92;38.96;100954.50;5067796;28;20124;-67
2023/07/03 09:29:37;;;;;;;0.00;0.00;;;;;;;24.26;40.04;100961.72;5068498;28;20051;-66
2023/07/03 09:32:03;;;;;;;0.10;0.10;;;;;;;24.44;39.74;100954.38;5066319;28;20052;-65
2023/07/03 09:34:58;;;;;;;0.00;0.00;;;;;;;25.45;38.11;100959.84;5049563;28;20064;-68
2023/07/03 09:37:24;;;;;;;0.10;0.10;;;;;;;25.45;37.70;100970.84;5067787;28;20036;-67
2023/07/03 09:39:51;;;;;;;0.00;0.00;;;;;;;25.48;37.00;100956.44;5049318;28;20155;-67
2023/07/03 09:42:16;;;;;;;0.00;0.00;;;;;;;24.57;37.15;100969.16;5066228;28;20404;-68
2023/07/03 09:44:42;;;;;;;0.00;0.00;;;;;;;24.76;35.35;100967.03;5070657;28;20029;-68
2023/07/03 09:47:21;;;;;;;0.00;0.00;;;;;;;25.82;34.40;100971.06;5071980;28;20381;-68
2023/07/03 09:49:48;;;;;;;0.00;0.00;;;;;;;25.05;35.67;100970.06;5070077;28;20032;-68
2023/07/03 09:52:14;;;;;;;0.00;0.00;;;;;;;24.91;35.49;100980.34;5071889;28;20079;-70
2023/07/03 09:54:44;;;;;;;0.00;0.00;;;;;;;25.71;35.26;100975.25;5072450;28;20016;-67
2023/07/03 09:57:24;;;;;;;0.00;0.00;;;;;;;25.28;35.60;100969.66;5071788;28;20369;-67
2023/07/03 09:59:51;;;;;;;0.00;0.00;;;;;;;25.32;36.06;100974.53;5070230;28;20520;-66
2023/07/03 10:02:21;;;;;;;0.00;0.00;;;;;;;25.57;35.89;100976.53;5053680;28;20029;-67
2023/07/03 10:04:46;;;;;;;0.10;0.10;;;;;;;25.75;35.39;100981.72;5071652;28;20033;-67
2023/07/03 10:07:16;;;;;;;0.00;0.00;;;;;;;25.47;35.92;100974.09;5071487;28;20396;-66
2023/07/03 10:09:43;;;;;;;0.00;0.00;;;;;;;25.43;36.73;100982.19;5069591;28;20274;-66
2023/07/03 10:12:24;;;;;;;0.00;0.00;;;;;;;25.68;36.87;100988.84;5070989;28;20393;-69
2023/07/03 10:15:05;;;;;;;0.00;0.00;;;;;;;25.80;37.13;100989.03;5070014;28;20241;-69
2023/07/03 10:17:33;;;;;;;;;;;;;;;25.29;37.65;100989.72;5062012;28;20531;-67
2023/07/03 10:20:09;;;;;;;0.10;0.10;;;;;;;24.63;39.01;100984.41;5071246;28;20269;-67
2023/07/03 10:22:37;;;;;;;0.10;0.10;;;;;;;25.32;37.80;100988.28;5071348;28;20047;-66
2023/07/03 10:25:06;;;;;;;0.00;0.00;;;;;;;24.61;37.23;101001.19;5071474;28;20131;-67
2023/07/03 10:27:33;;;;;;;0.00;0.00;;;;;;;24.89;36.65;100996.34;5072538;28;20097;-67
2023/07/03 10:30:00;;;;;;;0.10;0.10;;;;;;;24.71;37.61;100991.84;5071160;28;20028;-66
2023/07/03 10:32:31;;;;;;;0.00;0.00;;;;;;;24.37;37.22;100995.25;5071219;28;20147;-66
2023/07/03 10:35:11;;;;;;;0.00;0.00;;;;;;;24.67;37.62;100988.16;5070891;28;20028;-67
2023/07/03 10:37:53;;;;;;;0.08;0.08;;;;;;;25.13;36.75;100988.53;5052650;28;20115;-68
2023/07/03 10:40:27;;;;;;;0.00;0.00;;;;;;;25.74;35.32;100982.88;5071021;28;20055;-68
2023/07/03 10:42:56;;;;;;;0.00;0.00;;;;;;;25.76;34.50;100979.78;5070824;28;20043;-69
2023/07/03 10:45:22;;;;;;;0.00;0.00;;;;;;;24.98;35.36;100983.47;5065842;28;20443;-68
2023/07/03 10:48:00;;;;;;;0.00;0.00;;;;;;;24.66;35.25;100986.50;5063365;28;20044;-67
2023/07/03 10:50:32;;;;;;;0.00;0.00;;;;;;;25.69;33.70;100979.47;5069170;28;20085;-65
2023/07/03 10:53:12;;;;;;;0.00;0.00;;;;;;;24.73;33.21;100987.72;5070756;28;20031;-70
2023/07/03 10:55:44;;;;;;;0.00;0.00;;;;;;;25.26;31.64;101001.34;5068989;28;20037;-67
2023/07/03 10:58:19;;;;;;;0.00;0.00;;;;;;;26.29;31.57;100993.25;5068976;28;20518;-67
2023/07/03 11:00:55;;;;;;;0.00;0.00;;;;;;;25.95;31.29;101008.63;5068583;28;20104;-66
2023/07/03 11:03:43;;;;;;;0.00;0.00;;;;;;;25.37;32.06;101004.63;5066958;28;20094;-67
2023/07/03 11:06:22;;;;;;;0.00;0.00;;;;;;;24.52;34.35;101008.59;5068860;28;20044;-67
2023/07/03 11:08:52;;;;;;;0.00;0.00;;;;;;;25.01;34.17;101013.06;5064090;28;20063;-69
2023/07/03 11:11:33;;;;;;;0.00;0.00;;;;;;;24.65;34.08;101010.44;5069239;28;20029;-68
2023/07/03 11:14:14;;;;;;;0.00;0.00;;;;;;;25.02;33.16;101010.00;5070347;28;20033;-71
2023/07/03 11:17:19;;;;;;;0.00;0.00;;;;;;;24.50;33.76;101023.75;5063159;28;20033;-68
2023/07/03 11:20:10;;;;;;;0.00;0.00;;;;;;;24.82;34.56;101012.50;5068322;28;20470;-67
2023/07/03 11:22:50;;;;;;;0.00;0.00;;;;;;;25.31;32.79;101016.91;5065828;28;20044;-68
2023/07/03 11:25:29;;;;;;;0.00;0.00;;;;;;;25.80;32.37;101016.56;5063369;28;20037;-65
2023/07/03 11:28:05;;;;;;;0.00;0.00;;;;;;;25.12;34.17;101003.41;5058881;28;20488;-70
2023/07/03 11:30:32;;;;;;;0.00;0.00;;;;;;;26.27;32.62;100993.59;5057491;28;20039;-67